sensor_id;sensor_type;location;lat;lon;timestamp;pressure;altitude;pressure_sealevel;temperature
9798;BMP180;4938;57.492;12.652;2022-08-03T00:01:07;81810.56;;;-136.68
9798;BMP180;4938;57.492;12.652;2022-08-03T00:03:54;81792.34;;;-136.68
9798;BMP180;4938;57.492;12.652;2022-08-03T00:06:41;81802.47;;;-136.68
9798;BMP180;4938;57.492;12.652;2022-08-03T00:09:28;81816.63;;;-136.68
9798;BMP180;4938;57.492;12.652;2022-08-03T00:12:15;81816.63;;;-136.68
9798;BMP180;4938;57.492;12.652;2022-08-03T00:15:05;81816.63;;;-136.68
9798;BMP180;4938;57.492;12.652;2022-08-03T00:17:52;81766.03;;;-136.68
9798;BMP180;4938;57.492;12.652;2022-08-03T00:20:39;81788.28;;;-136.68
9798;BMP180;4938;57.492;12.652;2022-08-03T00:23:26;81810.56;;;-136.68
9798;BMP180;4938;57.492;12.652;2022-08-03T00:26:13;81808.53;;;-136.68
9798;BMP180;4938;57.492;12.652;2022-08-03T00:29:00;81796.38;;;-136.68
9798;BMP180;4938;57.492;12.652;2022-08-03T00:31:48;81820.69;;;-136.68
9798;BMP180;4938;57.492;12.652;2022-08-03T00:34:35;81828.75;;;-136.68
9798;BMP180;4938;57.492;12.652;2022-08-03T00:37:22;81800.44;;;-136.68
9798;BMP180;4938;57.492;12.652;2022-08-03T00:40:10;81812.56;;;-136.68
9798;BMP180;4938;57.492;12.652;2022-08-03T00:42:59;81816.63;;;-136.68
9798;BMP180;4938;57.492;12.652;2022-08-03T00:45:46;81812.56;;;-136.68
9798;BMP180;4938;57.492;12.652;2022-08-03T00:48:35;81818.66;;;-136.68
9798;BMP180;4938;57.492;12.652;2022-08-03T00:51:22;81541.44;;;-136.68
9798;BMP180;4938;57.492;12.652;2022-08-03T00:54:10;81806.50;;;-136.68
9798;BMP180;4938;57.492;12.652;2022-08-03T00:56:56;81806.50;;;-136.68
9798;BMP180;4938;57.492;12.652;2022-08-03T00:59:43;81832.81;;;-136.68
9798;BMP180;4938;57.492;12.652;2022-08-03T01:02:32;81810.56;;;-136.68
9798;BMP180;4938;57.492;12.652;2022-08-03T01:05:20;81824.72;;;-136.68
9798;BMP180;4938;57.492;12.652;2022-08-03T01:08:18;81822.69;;;-136.68
9798;BMP180;4938;57.492;12.652;2022-08-03T01:11:13;81830.78;;;-136.68
9798;BMP180;4938;57.492;12.652;2022-08-03T01:14:05;81672.94;;;-136.68
9798;BMP180;4938;57.492;12.652;2022-08-03T01:16:58;81768.06;;;-136.68
9798;BMP180;4938;57.492;12.652;2022-08-03T01:19:53;81820.69;;;-136.68
9798;BMP180;4938;57.492;12.652;2022-08-03T01:23:02;81814.59;;;-136.68
9798;BMP180;4938;57.492;12.652;2022-08-03T01:26:11;81826.75;;;-136.68
9798;BMP180;4938;57.492;12.652;2022-08-03T01:29:09;81842.94;;;-136.68
9798;BMP180;4938;57.492;12.652;2022-08-03T01:32:08;81816.63;;;-136.68
9798;BMP180;4938;57.492;12.652;2022-08-03T01:35:00;81820.69;;;-136.68
9798;BMP180;4938;57.492;12.652;2022-08-03T01:37:51;81812.56;;;-136.68
9798;BMP180;4938;57.492;12.652;2022-08-03T01:40:40;81784.25;;;-136.68
9798;BMP180;4938;57.492;12.652;2022-08-03T01:43:29;81820.69;;;-136.68
9798;BMP180;4938;57.492;12.652;2022-08-03T01:46:17;81456.44;;;-136.68
9798;BMP180;4938;57.492;12.652;2022-08-03T01:49:09;81808.53;;;-136.68
9798;BMP180;4938;57.492;12.652;2022-08-03T01:51:57;81840.91;;;-136.68
9798;BMP180;4938;57.492;12.652;2022-08-03T01:54:48;81822.69;;;-136.68
9798;BMP180;4938;57.492;12.652;2022-08-03T01:57:37;81853.06;;;-136.68
9798;BMP180;4938;57.492;12.652;2022-08-03T02:00:25;81816.63;;;-136.68
9798;BMP180;4938;57.492;12.652;2022-08-03T02:03:14;81806.50;;;-136.68
9798;BMP180;4938;57.492;12.652;2022-08-03T02:06:04;81812.56;;;-136.68
9798;BMP180;4938;57.492;12.652;2022-08-03T02:08:51;81824.72;;;-136.68
9798;BMP180;4938;57.492;12.652;2022-08-03T02:11:40;81824.72;;;-136.68
9798;BMP180;4938;57.492;12.652;2022-08-03T02:14:29;81747.81;;;-136.68
9798;BMP180;4938;57.492;12.652;2022-08-03T02:17:18;81810.56;;;-136.68
9798;BMP180;4938;57.492;12.652;2022-08-03T02:20:07;81478.69;;;-136.68
9798;BMP180;4938;57.492;12.652;2022-08-03T02:22:58;81836.88;;;-136.68
9798;BMP180;4938;57.492;12.652;2022-08-03T02:25:48;81812.56;;;-136.68
9798;BMP180;4938;57.492;12.652;2022-08-03T02:28:40;81834.84;;;-136.68
9798;BMP180;4938;57.492;12.652;2022-08-03T02:31:29;81828.75;;;-136.68
9798;BMP180;4938;57.492;12.652;2022-08-03T02:34:20;81844.97;;;-136.68
9798;BMP180;4938;57.492;12.652;2022-08-03T02:37:10;81828.75;;;-136.68
9798;BMP180;4938;57.492;12.652;2022-08-03T02:40:02;81859.13;;;-136.68
9798;BMP180;4938;57.492;12.652;2022-08-03T02:42:52;81824.72;;;-136.68
9798;BMP180;4938;57.492;12.652;2022-08-03T02:45:42;81802.47;;;-136.68
9798;BMP180;4938;57.492;12.652;2022-08-03T02:48:31;81824.72;;;-136.68
9798;BMP180;4938;57.492;12.652;2022-08-03T02:51:21;81840.91;;;-136.68
9798;BMP180;4938;57.492;12.652;2022-08-03T02:54:10;81820.69;;;-136.68
9798;BMP180;4938;57.492;12.652;2022-08-03T02:56:59;81828.75;;;-136.68
9798;BMP180;4938;57.492;12.652;2022-08-03T02:59:48;81830.78;;;-136.68
9798;BMP180;4938;57.492;12.652;2022-08-03T03:02:36;81830.78;;;-136.68
9798;BMP180;4938;57.492;12.652;2022-08-03T03:05:26;81816.63;;;-136.68
9798;BMP180;4938;57.492;12.652;2022-08-03T03:08:14;81812.56;;;-136.68
9798;BMP180;4938;57.492;12.652;2022-08-03T03:11:02;81857.09;;;-136.68
9798;BMP180;4938;57.492;12.652;2022-08-03T03:13:51;81824.72;;;-136.68
9798;BMP180;4938;57.492;12.652;2022-08-03T03:16:39;81674.97;;;-136.68
9798;BMP180;4938;57.492;12.652;2022-08-03T03:19:28;81840.91;;;-136.68
9798;BMP180;4938;57.492;12.652;2022-08-03T03:22:17;81846.97;;;-136.68
9798;BMP180;4938;57.492;12.652;2022-08-03T03:25:05;81828.75;;;-136.68
9798;BMP180;4938;57.492;12.652;2022-08-03T03:27:52;81840.91;;;-136.68
9798;BMP180;4938;57.492;12.652;2022-08-03T03:30:41;82508.78;;;-136.68
9798;BMP180;4938;57.492;12.652;2022-08-03T03:33:28;81863.16;;;-136.68
9798;BMP180;4938;57.492;12.652;2022-08-03T03:36:16;81826.75;;;-136.68
9798;BMP180;4938;57.492;12.652;2022-08-03T03:39:03;81840.91;;;-136.68
9798;BMP180;4938;57.492;12.652;2022-08-03T03:41:50;81838.88;;;-136.68
9798;BMP180;4938;57.492;12.652;2022-08-03T03:44:38;81834.84;;;-136.68
9798;BMP180;4938;57.492;12.652;2022-08-03T03:47:27;81836.88;;;-136.68
9798;BMP180;4938;57.492;12.652;2022-08-03T03:50:15;81832.81;;;-136.68
9798;BMP180;4938;57.492;12.652;2022-08-03T03:53:03;81849.00;;;-136.68
9798;BMP180;4938;57.492;12.652;2022-08-03T03:55:51;81844.97;;;-136.68
9798;BMP180;4938;57.492;12.652;2022-08-03T03:58:38;81844.97;;;-136.68
9798;BMP180;4938;57.492;12.652;2022-08-03T04:01:25;81857.09;;;-136.68
9798;BMP180;4938;57.492;12.652;2022-08-03T04:04:14;81844.97;;;-136.68
9798;BMP180;4938;57.492;12.652;2022-08-03T04:07:18;81849.00;;;-136.68
9798;BMP180;4938;57.492;12.652;2022-08-03T04:10:25;81792.34;;;-136.68
9798;BMP180;4938;57.492;12.652;2022-08-03T04:13:33;81842.94;;;-136.68
9798;BMP180;4938;57.492;12.652;2022-08-03T04:16:23;81828.75;;;-136.68
9798;BMP180;4938;57.492;12.652;2022-08-03T04:19:14;81834.84;;;-136.68
9798;BMP180;4938;57.492;12.652;2022-08-03T04:22:05;81561.66;;;-136.68
9798;BMP180;4938;57.492;12.652;2022-08-03T04:24:57;81844.97;;;-136.68
9798;BMP180;4938;57.492;12.652;2022-08-03T04:27:46;81824.72;;;-136.68
9798;BMP180;4938;57.492;12.652;2022-08-03T04:30:37;81764.00;;;-136.68
9798;BMP180;4938;57.492;12.652;2022-08-03T04:33:33;81836.88;;;-136.68
9798;BMP180;4938;57.492;12.652;2022-08-03T04:36:25;81654.75;;;-136.68
9798;BMP180;4938;57.492;12.652;2022-08-03T04:39:17;81844.97;;;-136.68
9798;BMP180;4938;57.492;12.652;2022-08-03T04:42:06;81853.06;;;-136.68
9798;BMP180;4938;57.492;12.652;2022-08-03T04:44:55;81828.75;;;-136.68
9798;BMP180;4938;57.492;12.652;2022-08-03T04:47:42;81844.97;;;-136.68
9798;BMP180;4938;57.492;12.652;2022-08-03T04:50:30;81832.81;;;-136.68
9798;BMP180;4938;57.492;12.652;2022-08-03T04:53:18;81840.91;;;-136.68
9798;BMP180;4938;57.492;12.652;2022-08-03T04:56:06;81826.75;;;-136.68
9798;BMP180;4938;57.492;12.652;2022-08-03T04:58:53;81834.84;;;-136.68
9798;BMP180;4938;57.492;12.652;2022-08-03T05:01:40;81820.69;;;-136.68
9798;BMP180;4938;57.492;12.652;2022-08-03T05:04:27;81780.19;;;-136.68
9798;BMP180;4938;57.492;12.652;2022-08-03T05:07:15;81828.75;;;-136.68
9798;BMP180;4938;57.492;12.652;2022-08-03T05:10:06;81826.75;;;-136.68
9798;BMP180;4938;57.492;12.652;2022-08-03T05:12:53;81810.56;;;-136.68
9798;BMP180;4938;57.492;12.652;2022-08-03T05:15:40;81786.28;;;-136.68
9798;BMP180;4938;57.492;12.652;2022-08-03T05:18:27;81802.47;;;-136.68
9798;BMP180;4938;57.492;12.652;2022-08-03T05:21:14;81820.69;;;-136.68
9798;BMP180;4938;57.492;12.652;2022-08-03T05:24:01;81802.47;;;-136.68
9798;BMP180;4938;57.492;12.652;2022-08-03T05:26:50;81822.69;;;-136.68
9798;BMP180;4938;57.492;12.652;2022-08-03T05:29:37;81806.50;;;-136.68
9798;BMP180;4938;57.492;12.652;2022-08-03T05:32:24;81796.38;;;-136.68
9798;BMP180;4938;57.492;12.652;2022-08-03T05:35:11;81519.16;;;-136.68
9798;BMP180;4938;57.492;12.652;2022-08-03T05:37:58;81359.31;;;-136.68
9798;BMP180;4938;57.492;12.652;2022-08-03T05:40:45;81316.84;;;-136.68
9798;BMP180;4938;57.492;12.652;2022-08-03T05:43:33;81383.59;;;-136.68
9798;BMP180;4938;57.492;12.652;2022-08-03T05:46:20;81561.66;;;-136.68
9798;BMP180;4938;57.492;12.652;2022-08-03T05:49:07;81632.47;;;-136.68
9798;BMP180;4938;57.492;12.652;2022-08-03T05:51:54;81450.38;;;-136.68
9798;BMP180;4938;57.492;12.652;2022-08-03T05:54:42;81318.84;;;-136.68
9798;BMP180;4938;57.492;12.652;2022-08-03T05:57:28;81666.88;;;-136.68
9798;BMP180;4938;57.492;12.652;2022-08-03T06:00:17;81432.16;;;-136.68
9798;BMP180;4938;57.492;12.652;2022-08-03T06:03:04;81205.56;;;-136.68
9798;BMP180;4938;57.492;12.652;2022-08-03T06:05:52;81290.53;;;-136.68
9798;BMP180;4938;57.492;12.652;2022-08-03T06:08:41;81318.84;;;-136.68
9798;BMP180;4938;57.492;12.652;2022-08-03T06:11:28;81302.69;;;-136.68
9798;BMP180;4938;57.492;12.652;2022-08-03T06:14:15;81345.16;;;-136.68
9798;BMP180;4938;57.492;12.652;2022-08-03T06:17:03;81258.16;;;-136.68
9798;BMP180;4938;57.492;12.652;2022-08-03T06:19:51;81266.25;;;-136.68
9798;BMP180;4938;57.492;12.652;2022-08-03T06:22:38;81197.47;;;-136.68
9798;BMP180;4938;57.492;12.652;2022-08-03T06:25:25;81248.03;;;-136.68
9798;BMP180;4938;57.492;12.652;2022-08-03T06:28:12;81161.03;;;-136.68
9798;BMP180;4938;57.492;12.652;2022-08-03T06:30:59;81197.47;;;-136.68
9798;BMP180;4938;57.492;12.652;2022-08-03T06:33:48;81233.88;;;-136.68
9798;BMP180;4938;57.492;12.652;2022-08-03T06:36:36;81223.78;;;-136.68
9798;BMP180;4938;57.492;12.652;2022-08-03T06:39:23;81193.41;;;-136.68
9798;BMP180;4938;57.492;12.652;2022-08-03T06:42:10;81136.78;;;-136.68
9798;BMP180;4938;57.492;12.652;2022-08-03T06:44:57;81092.25;;;-136.68
9798;BMP180;4938;57.492;12.652;2022-08-03T06:47:44;81084.16;;;-136.68
9798;BMP180;4938;57.492;12.652;2022-08-03T06:50:33;80999.19;;;-136.68
9798;BMP180;4938;57.492;12.652;2022-08-03T06:53:20;80792.84;;;-136.68
9798;BMP180;4938;57.492;12.652;2022-08-03T06:56:07;80896.03;;;-136.68
9798;BMP180;4938;57.492;12.652;2022-08-03T06:58:55;80900.06;;;-136.68
9798;BMP180;4938;57.492;12.652;2022-08-03T07:01:42;80950.66;;;-136.68
9798;BMP180;4938;57.492;12.652;2022-08-03T07:04:29;81019.44;;;-136.68
9798;BMP180;4938;57.492;12.652;2022-08-03T07:07:17;80922.31;;;-136.68
9798;BMP180;4938;57.492;12.652;2022-08-03T07:10:06;80995.16;;;-136.68
9798;BMP180;4938;57.492;12.652;2022-08-03T07:12:53;81047.75;;;-136.68
9798;BMP180;4938;57.492;12.652;2022-08-03T07:15:40;81023.47;;;-136.68
9798;BMP180;4938;57.492;12.652;2022-08-03T07:18:27;81029.53;;;-136.68
9798;BMP180;4938;57.492;12.652;2022-08-03T07:21:14;81051.81;;;-136.68
9798;BMP180;4938;57.492;12.652;2022-08-03T07:24:03;80926.38;;;-136.68
9798;BMP180;4938;57.492;12.652;2022-08-03T07:26:51;80987.06;;;-136.68
9798;BMP180;4938;57.492;12.652;2022-08-03T07:29:38;80972.91;;;-136.68
9798;BMP180;4938;57.492;12.652;2022-08-03T07:32:25;80883.88;;;-136.68
9798;BMP180;4938;57.492;12.652;2022-08-03T07:35:13;80936.50;;;-136.68
9798;BMP180;4938;57.492;12.652;2022-08-03T07:37:59;80576.41;;;-136.68
9798;BMP180;4938;57.492;12.652;2022-08-03T07:40:48;80279.09;;;-136.68
9798;BMP180;4938;57.492;12.652;2022-08-03T07:43:35;80042.47;;;-136.68
9798;BMP180;4938;57.492;12.652;2022-08-03T07:46:22;79795.75;;;-136.68
9798;BMP180;4938;57.492;12.652;2022-08-03T07:49:09;79629.94;;;-136.68
9798;BMP180;4938;57.492;12.652;2022-08-03T07:51:56;79494.47;;;-136.68
9798;BMP180;4938;57.492;12.652;2022-08-03T07:55:00;79365.06;;;-136.68
9798;BMP180;4938;57.492;12.652;2022-08-03T07:57:58;79425.72;;;-136.68
9798;BMP180;4938;57.492;12.652;2022-08-03T08:00:45;79298.34;;;-136.68
9798;BMP180;4938;57.492;12.652;2022-08-03T08:03:32;79231.59;;;-136.68
9798;BMP180;4938;57.492;12.652;2022-08-03T08:06:21;79106.25;;;-136.68
9798;BMP180;4938;57.492;12.652;2022-08-03T08:09:08;79235.66;;;-136.68
9798;BMP180;4938;57.492;12.652;2022-08-03T08:11:56;79452.00;;;-136.68
9798;BMP180;4938;57.492;12.652;2022-08-03T08:14:44;79395.38;;;-136.68
9798;BMP180;4938;57.492;12.652;2022-08-03T08:17:40;79437.84;;;-136.68
9798;BMP180;4938;57.492;12.652;2022-08-03T08:20:30;79680.47;;;-136.68
9798;BMP180;4938;57.492;12.652;2022-08-03T08:23:17;79935.28;;;-136.68
9798;BMP180;4938;57.492;12.652;2022-08-03T08:26:07;80080.88;;;-136.68
9798;BMP180;4938;57.492;12.652;2022-08-03T08:28:54;80194.16;;;-136.68
9798;BMP180;4938;57.492;12.652;2022-08-03T08:31:42;80281.13;;;-136.68
9798;BMP180;4938;57.492;12.652;2022-08-03T08:34:29;80305.38;;;-136.68
9798;BMP180;4938;57.492;12.652;2022-08-03T08:37:16;80327.63;;;-136.68
9798;BMP180;4938;57.492;12.652;2022-08-03T08:40:04;80347.84;;;-136.68
9798;BMP180;4938;57.492;12.652;2022-08-03T08:42:52;80388.31;;;-136.68
9798;BMP180;4938;57.492;12.652;2022-08-03T08:45:39;80333.69;;;-136.68
9798;BMP180;4938;57.492;12.652;2022-08-03T08:48:29;80396.41;;;-136.68
9798;BMP180;4938;57.492;12.652;2022-08-03T08:51:18;80291.22;;;-136.68
9798;BMP180;4938;57.492;12.652;2022-08-03T08:54:06;80384.25;;;-136.68
9798;BMP180;4938;57.492;12.652;2022-08-03T08:56:56;80325.59;;;-136.68
9798;BMP180;4938;57.492;12.652;2022-08-03T08:59:44;80408.53;;;-136.68
9798;BMP180;4938;57.492;12.652;2022-08-03T09:02:31;80370.09;;;-136.68
9798;BMP180;4938;57.492;12.652;2022-08-03T09:05:19;80414.59;;;-136.68
9798;BMP180;4938;57.492;12.652;2022-08-03T09:08:07;80436.84;;;-136.68
9798;BMP180;4938;57.492;12.652;2022-08-03T09:10:54;80463.16;;;-136.68
9798;BMP180;4938;57.492;12.652;2022-08-03T09:13:41;80517.75;;;-136.68
9798;BMP180;4938;57.492;12.652;2022-08-03T09:16:28;80594.63;;;-136.68
9798;BMP180;4938;57.492;12.652;2022-08-03T09:19:15;80618.91;;;-136.68
9798;BMP180;4938;57.492;12.652;2022-08-03T09:22:14;80663.41;;;-136.68
9798;BMP180;4938;57.492;12.652;2022-08-03T09:25:04;80703.84;;;-136.68
9798;BMP180;4938;57.492;12.652;2022-08-03T09:27:52;80728.13;;;-136.68
9798;BMP180;4938;57.492;12.652;2022-08-03T09:30:41;80724.09;;;-136.68
9798;BMP180;4938;57.492;12.652;2022-08-03T09:33:29;80740.25;;;-136.68
9798;BMP180;4938;57.492;12.652;2022-08-03T09:36:34;80792.84;;;-136.68
9798;BMP180;4938;57.492;12.652;2022-08-03T09:39:24;80837.38;;;-136.68
9798;BMP180;4938;57.492;12.652;2022-08-03T09:42:13;80847.47;;;-136.68
9798;BMP180;4938;57.492;12.652;2022-08-03T09:45:01;80815.09;;;-136.68
9798;BMP180;4938;57.492;12.652;2022-08-03T09:47:48;80477.31;;;-136.68
9798;BMP180;4938;57.492;12.652;2022-08-03T09:50:47;80802.97;;;-136.68
9798;BMP180;4938;57.492;12.652;2022-08-03T09:53:41;80756.44;;;-136.68
9798;BMP180;4938;57.492;12.652;2022-08-03T09:56:41;80752.41;;;-136.68
9798;BMP180;4938;57.492;12.652;2022-08-03T09:59:30;80748.34;;;-136.68
9798;BMP180;4938;57.492;12.652;2022-08-03T10:02:22;80716.00;;;-136.68
9798;BMP180;4938;57.492;12.652;2022-08-03T10:05:11;80693.75;;;-136.68
9798;BMP180;4938;57.492;12.652;2022-08-03T10:07:58;80622.94;;;-136.68
9798;BMP180;4938;57.492;12.652;2022-08-03T10:10:46;80655.31;;;-136.68
9798;BMP180;4938;57.492;12.652;2022-08-03T10:13:35;80594.63;;;-136.68
9798;BMP180;4938;57.492;12.652;2022-08-03T10:16:23;80659.34;;;-136.68
9798;BMP180;4938;57.492;12.652;2022-08-03T10:19:10;80659.34;;;-136.68
9798;BMP180;4938;57.492;12.652;2022-08-03T10:22:02;80659.34;;;-136.68
9798;BMP180;4938;57.492;12.652;2022-08-03T10:24:52;80716.00;;;-136.68
9798;BMP180;4938;57.492;12.652;2022-08-03T10:27:45;80673.50;;;-136.68
9798;BMP180;4938;57.492;12.652;2022-08-03T10:30:35;80707.91;;;-136.68
9798;BMP180;4938;57.492;12.652;2022-08-03T10:33:24;80655.31;;;-136.68
9798;BMP180;4938;57.492;12.652;2022-08-03T10:36:13;80703.84;;;-136.68
9798;BMP180;4938;57.492;12.652;2022-08-03T10:39:02;80732.16;;;-136.68
9798;BMP180;4938;57.492;12.652;2022-08-03T10:41:50;80711.94;;;-136.68
9798;BMP180;4938;57.492;12.652;2022-08-03T10:44:39;80667.44;;;-136.68
9798;BMP180;4938;57.492;12.652;2022-08-03T10:47:29;80679.56;;;-136.68
9798;BMP180;4938;57.492;12.652;2022-08-03T10:50:17;80740.25;;;-136.68
9798;BMP180;4938;57.492;12.652;2022-08-03T10:53:05;80784.75;;;-136.68
9798;BMP180;4938;57.492;12.652;2022-08-03T10:55:52;80831.28;;;-136.68
9798;BMP180;4938;57.492;12.652;2022-08-03T10:58:57;80877.81;;;-136.68
9798;BMP180;4938;57.492;12.652;2022-08-03T11:01:51;80855.56;;;-136.68
9798;BMP180;4938;57.492;12.652;2022-08-03T11:04:41;80780.72;;;-136.68
9798;BMP180;4938;57.492;12.652;2022-08-03T11:07:29;80837.38;;;-136.68
9798;BMP180;4938;57.492;12.652;2022-08-03T11:10:29;80756.44;;;-136.68
9798;BMP180;4938;57.492;12.652;2022-08-03T11:13:18;80764.53;;;-136.68
9798;BMP180;4938;57.492;12.652;2022-08-03T11:16:19;80774.66;;;-136.68
9798;BMP180;4938;57.492;12.652;2022-08-03T11:19:10;80732.16;;;-136.68
9798;BMP180;4938;57.492;12.652;2022-08-03T11:21:59;80724.09;;;-136.68
9798;BMP180;4938;57.492;12.652;2022-08-03T11:24:58;80695.75;;;-136.68
9798;BMP180;4938;57.492;12.652;2022-08-03T11:27:45;80705.88;;;-136.68
9798;BMP180;4938;57.492;12.652;2022-08-03T11:30:32;80807.03;;;-136.68
9798;BMP180;4938;57.492;12.652;2022-08-03T11:33:28;80875.78;;;-136.68
9798;BMP180;4938;57.492;12.652;2022-08-03T11:36:15;80970.88;;;-136.68
9798;BMP180;4938;57.492;12.652;2022-08-03T11:39:13;81067.97;;;-136.68
9798;BMP180;4938;57.492;12.652;2022-08-03T11:45:29;81124.63;;;-136.68
9798;BMP180;4938;57.492;12.652;2022-08-03T11:48:16;81001.22;;;-136.68
9798;BMP180;4938;57.492;12.652;2022-08-03T11:51:04;80720.03;;;-136.68
9798;BMP180;4938;57.492;12.652;2022-08-03T11:53:53;81015.38;;;-136.68
9798;BMP180;4938;57.492;12.652;2022-08-03T11:56:46;81080.13;;;-136.68
9798;BMP180;4938;57.492;12.652;2022-08-03T11:59:35;81035.63;;;-136.68
9798;BMP180;4938;57.492;12.652;2022-08-03T12:02:23;81067.97;;;-136.68
9798;BMP180;4938;57.492;12.652;2022-08-03T12:05:10;81080.13;;;-136.68
9798;BMP180;4938;57.492;12.652;2022-08-03T12:07:57;81367.41;;;-136.68
9798;BMP180;4938;57.492;12.652;2022-08-03T12:10:49;81122.59;;;-136.68
9798;BMP180;4938;57.492;12.652;2022-08-03T12:13:40;81090.25;;;-136.68
9798;BMP180;4938;57.492;12.652;2022-08-03T12:16:27;80786.78;;;-136.68
9798;BMP180;4938;57.492;12.652;2022-08-03T12:19:14;80894.00;;;-136.68
9798;BMP180;4938;57.492;12.652;2022-08-03T12:22:01;80877.81;;;-136.68
9798;BMP180;4938;57.492;12.652;2022-08-03T12:24:48;80910.19;;;-136.68
9798;BMP180;4938;57.492;12.652;2022-08-03T12:27:36;80906.16;;;-136.68
9798;BMP180;4938;57.492;12.652;2022-08-03T12:30:24;80774.66;;;-136.68
9798;BMP180;4938;57.492;12.652;2022-08-03T12:33:16;80821.19;;;-136.68
9798;BMP180;4938;57.492;12.652;2022-08-03T12:36:06;80894.00;;;-136.68
9798;BMP180;4938;57.492;12.652;2022-08-03T12:38:55;80942.56;;;-136.68
9798;BMP180;4938;57.492;12.652;2022-08-03T12:41:42;80942.56;;;-136.68
9798;BMP180;4938;57.492;12.652;2022-08-03T12:44:30;80987.06;;;-136.68
9798;BMP180;4938;57.492;12.652;2022-08-03T12:47:18;81023.47;;;-136.68
9798;BMP180;4938;57.492;12.652;2022-08-03T12:50:06;81078.09;;;-136.68
9798;BMP180;4938;57.492;12.652;2022-08-03T12:52:53;81059.88;;;-136.68
9798;BMP180;4938;57.492;12.652;2022-08-03T12:55:40;81047.75;;;-136.68
9798;BMP180;4938;57.492;12.652;2022-08-03T12:58:28;80916.25;;;-136.68
9798;BMP180;4938;57.492;12.652;2022-08-03T13:01:18;80889.97;;;-136.68
9798;BMP180;4938;57.492;12.652;2022-08-03T13:04:08;80966.84;;;-136.68
9798;BMP180;4938;57.492;12.652;2022-08-03T13:06:57;80991.09;;;-136.68
9798;BMP180;4938;57.492;12.652;2022-08-03T13:09:45;81055.84;;;-136.68
9798;BMP180;4938;57.492;12.652;2022-08-03T13:12:45;81310.75;;;-136.68
9798;BMP180;4938;57.492;12.652;2022-08-03T13:15:32;81480.72;;;-136.68
9798;BMP180;4938;57.492;12.652;2022-08-03T13:18:19;81165.09;;;-136.68
9798;BMP180;4938;57.492;12.652;2022-08-03T13:21:07;81132.72;;;-136.68
9798;BMP180;4938;57.492;12.652;2022-08-03T13:23:54;81159.03;;;-136.68
9798;BMP180;4938;57.492;12.652;2022-08-03T13:26:41;81080.13;;;-136.68
9798;BMP180;4938;57.492;12.652;2022-08-03T13:29:28;81092.25;;;-136.68
9798;BMP180;4938;57.492;12.652;2022-08-03T13:32:15;81150.94;;;-136.68
9798;BMP180;4938;57.492;12.652;2022-08-03T13:35:03;81047.75;;;-136.68
9798;BMP180;4938;57.492;12.652;2022-08-03T13:37:51;81027.53;;;-136.68
9798;BMP180;4938;57.492;12.652;2022-08-03T13:40:38;81007.28;;;-136.68
9798;BMP180;4938;57.492;12.652;2022-08-03T13:43:25;81021.44;;;-136.68
9798;BMP180;4938;57.492;12.652;2022-08-03T13:46:12;80974.94;;;-136.68
9798;BMP180;4938;57.492;12.652;2022-08-03T13:48:59;80981.00;;;-136.68
9798;BMP180;4938;57.492;12.652;2022-08-03T13:51:46;80918.28;;;-136.68
9798;BMP180;4938;57.492;12.652;2022-08-03T13:54:34;80900.06;;;-136.68
9798;BMP180;4938;57.492;12.652;2022-08-03T13:57:21;80944.56;;;-136.68
9798;BMP180;4938;57.492;12.652;2022-08-03T14:00:09;80970.88;;;-136.68
9798;BMP180;4938;57.492;12.652;2022-08-03T14:02:58;80924.34;;;-136.68
9798;BMP180;4938;57.492;12.652;2022-08-03T14:05:45;80952.66;;;-136.68
9798;BMP180;4938;57.492;12.652;2022-08-03T14:08:32;80995.16;;;-136.68
9798;BMP180;4938;57.492;12.652;2022-08-03T14:11:21;81023.47;;;-136.68
9798;BMP180;4938;57.492;12.652;2022-08-03T14:14:08;81031.56;;;-136.68
9798;BMP180;4938;57.492;12.652;2022-08-03T14:16:55;81118.56;;;-136.68
9798;BMP180;4938;57.492;12.652;2022-08-03T14:19:42;81136.78;;;-136.68
9798;BMP180;4938;57.492;12.652;2022-08-03T14:22:28;81152.97;;;-136.68
9798;BMP180;4938;57.492;12.652;2022-08-03T14:25:15;81080.13;;;-136.68
9798;BMP180;4938;57.492;12.652;2022-08-03T14:28:04;81051.81;;;-136.68
9798;BMP180;4938;57.492;12.652;2022-08-03T14:30:51;81084.16;;;-136.68
9798;BMP180;4938;57.492;12.652;2022-08-03T14:33:39;81076.06;;;-136.68
9798;BMP180;4938;57.492;12.652;2022-08-03T14:36:25;81035.63;;;-136.68
9798;BMP180;4938;57.492;12.652;2022-08-03T14:39:12;81031.56;;;-136.68
9798;BMP180;4938;57.492;12.652;2022-08-03T14:41:59;81007.28;;;-136.68
9798;BMP180;4938;57.492;12.652;2022-08-03T14:44:48;81074.06;;;-136.68
9798;BMP180;4938;57.492;12.652;2022-08-03T14:47:35;81003.25;;;-136.68
9798;BMP180;4938;57.492;12.652;2022-08-03T14:50:22;81049.78;;;-136.68
9798;BMP180;4938;57.492;12.652;2022-08-03T14:53:09;81053.81;;;-136.68
9798;BMP180;4938;57.492;12.652;2022-08-03T14:55:56;80983.03;;;-136.68
9798;BMP180;4938;57.492;12.652;2022-08-03T14:58:43;81011.34;;;-136.68
9798;BMP180;4938;57.492;12.652;2022-08-03T15:01:32;80924.34;;;-136.68
9798;BMP180;4938;57.492;12.652;2022-08-03T15:04:19;80991.09;;;-136.68
9798;BMP180;4938;57.492;12.652;2022-08-03T15:07:06;80964.81;;;-136.68
9798;BMP180;4938;57.492;12.652;2022-08-03T15:09:53;80987.06;;;-136.68
9798;BMP180;4938;57.492;12.652;2022-08-03T15:12:39;80999.19;;;-136.68
9798;BMP180;4938;57.492;12.652;2022-08-03T15:15:26;80966.84;;;-136.68
9798;BMP180;4938;57.492;12.652;2022-08-03T15:18:15;80958.75;;;-136.68
9798;BMP180;4938;57.492;12.652;2022-08-03T15:21:02;80914.22;;;-136.68
9798;BMP180;4938;57.492;12.652;2022-08-03T15:23:49;80985.03;;;-136.68
9798;BMP180;4938;57.492;12.652;2022-08-03T15:26:37;80926.38;;;-136.68
9798;BMP180;4938;57.492;12.652;2022-08-03T15:29:24;80930.41;;;-136.68
9798;BMP180;4938;57.492;12.652;2022-08-03T15:32:11;80944.56;;;-136.68
9798;BMP180;4938;57.492;12.652;2022-08-03T15:35:00;80944.56;;;-136.68
9798;BMP180;4938;57.492;12.652;2022-08-03T15:37:47;80910.19;;;-136.68
9798;BMP180;4938;57.492;12.652;2022-08-03T15:40:34;80904.13;;;-136.68
9798;BMP180;4938;57.492;12.652;2022-08-03T15:43:21;80946.59;;;-136.68
9798;BMP180;4938;57.492;12.652;2022-08-03T15:46:08;80970.88;;;-136.68
9798;BMP180;4938;57.492;12.652;2022-08-03T15:48:55;80958.75;;;-136.68
9798;BMP180;4938;57.492;12.652;2022-08-03T15:51:44;80811.06;;;-136.68
9798;BMP180;4938;57.492;12.652;2022-08-03T15:54:31;83063.44;;;-136.68
9798;BMP180;4938;57.492;12.652;2022-08-03T15:57:18;80918.28;;;-136.68
9798;BMP180;4938;57.492;12.652;2022-08-03T16:00:06;80970.88;;;-136.68
9798;BMP180;4938;57.492;12.652;2022-08-03T16:02:55;81001.22;;;-136.68